createdAt,value
2019-02-05T00:00:55.327Z,99.90
2019-02-05T00:03:23.717Z,99.90
2019-02-05T00:05:52.743Z,99.90
2019-02-05T00:08:21.221Z,99.90
2019-02-05T00:10:50.068Z,99.90
2019-02-05T00:13:18.494Z,99.90
2019-02-05T00:15:48.021Z,99.90
2019-02-05T00:18:16.529Z,99.90
2019-02-05T00:20:45.694Z,99.90
2019-02-05T00:23:14.156Z,99.90
2019-02-05T00:25:42.563Z,99.90
2019-02-05T00:28:11.301Z,99.90
2019-02-05T00:30:39.770Z,99.90
2019-02-05T00:33:08.178Z,99.90
2019-02-05T00:35:36.576Z,99.90
2019-02-05T00:38:05.304Z,99.90
2019-02-05T00:40:33.707Z,99.90
2019-02-05T00:43:02.790Z,99.90
2019-02-05T00:45:31.204Z,99.90
2019-02-05T00:47:59.596Z,99.90
2019-02-05T00:50:28.026Z,99.90
2019-02-05T00:52:56.702Z,99.90
2019-02-05T00:55:25.093Z,99.90
2019-02-05T00:57:53.490Z,99.90
2019-02-05T01:00:28.214Z,99.90
2019-02-05T01:02:56.770Z,99.90
2019-02-05T01:05:25.806Z,99.90
2019-02-05T01:07:54.597Z,99.90
2019-02-05T01:10:24.133Z,99.90
2019-02-05T01:12:53.246Z,99.90
2019-02-05T01:15:24.192Z,99.90
2019-02-05T01:17:52.741Z,99.90
2019-02-05T01:20:22.505Z,99.90
2019-02-05T01:22:51.838Z,99.90
2019-02-05T01:25:21.374Z,99.90
2019-02-05T01:27:50.850Z,99.90
2019-02-05T01:30:27.094Z,99.90
2019-02-05T01:32:55.899Z,99.90
2019-02-05T01:35:24.721Z,99.90
2019-02-05T01:37:53.461Z,99.90
2019-02-05T01:40:24.018Z,99.90
2019-02-05T01:42:52.781Z,99.90
2019-02-05T01:45:22.917Z,99.90
2019-02-05T01:47:51.683Z,99.90
2019-02-05T01:50:22.985Z,99.90
2019-02-05T01:52:51.467Z,99.90
2019-02-05T01:55:20.349Z,99.90
2019-02-05T01:57:48.762Z,99.90
2019-02-05T02:00:19.500Z,99.90
2019-02-05T02:02:47.994Z,99.90
2019-02-05T02:05:16.721Z,99.90
2019-02-05T02:07:45.206Z,99.90
2019-02-05T02:10:19.934Z,99.90
2019-02-05T02:12:48.330Z,99.90
2019-02-05T02:15:17.172Z,99.90
2019-02-05T02:17:45.741Z,99.90
2019-02-05T02:20:16.381Z,99.90
2019-02-05T02:22:45.420Z,99.90
2019-02-05T02:25:14.533Z,99.90
2019-02-05T02:27:43.088Z,99.90
2019-02-05T02:30:23.455Z,99.90
2019-02-05T02:32:51.858Z,99.90
2019-02-05T02:35:20.262Z,99.90
2019-02-05T02:37:48.735Z,99.90
2019-02-05T02:40:17.219Z,99.90
2019-02-05T02:42:45.641Z,99.90
2019-02-05T02:45:15.075Z,99.90
2019-02-05T02:47:43.484Z,99.90
2019-02-05T02:50:14.715Z,99.90
2019-02-05T02:52:43.182Z,99.90
2019-02-05T02:55:11.735Z,99.90
2019-02-05T02:57:40.206Z,99.90
2019-02-05T03:00:15.110Z,99.90
2019-02-05T03:02:43.579Z,99.90
2019-02-05T03:05:14.006Z,99.90
2019-02-05T03:07:42.424Z,99.90
2019-02-05T03:10:19.377Z,99.90
2019-02-05T03:12:47.783Z,99.90
2019-02-05T03:15:16.811Z,99.90
2019-02-05T03:17:45.290Z,99.90
2019-02-05T03:20:15.637Z,99.90
2019-02-05T03:22:45.337Z,99.90
2019-02-05T03:25:19.800Z,99.90
2019-02-05T03:27:48.470Z,99.90
2019-02-05T03:30:18.920Z,99.90
2019-02-05T03:32:47.446Z,99.90
2019-02-05T03:35:16.901Z,99.90
2019-02-05T03:37:45.367Z,99.90
2019-02-05T03:40:28.691Z,99.90
2019-02-05T03:42:57.224Z,99.90
2019-02-05T03:45:27.765Z,99.90
2019-02-05T03:47:59.246Z,99.90
2019-02-05T03:50:28.694Z,99.90
2019-02-05T03:53:05.320Z,99.90
2019-02-05T03:55:48.830Z,99.90
2019-02-05T03:58:26.433Z,99.90
2019-02-05T04:01:13.065Z,99.90
2019-02-05T04:04:05.034Z,99.90
2019-02-05T04:06:42.630Z,99.90
2019-02-05T04:09:23.357Z,99.90
2019-02-05T04:12:03.475Z,99.90
2019-02-05T04:14:41.020Z,99.90
2019-02-05T04:17:12.881Z,99.90
2019-02-05T04:20:17.914Z,99.90
2019-02-05T04:23:04.438Z,99.90
2019-02-05T04:25:55.684Z,99.90
2019-02-05T04:28:29.742Z,99.90
2019-02-05T04:31:22.613Z,99.90
2019-02-05T04:34:06.006Z,99.90
2019-02-05T04:36:46.050Z,99.90
2019-02-05T04:39:43.331Z,99.90
2019-02-05T04:42:17.771Z,99.90
2019-02-05T04:45:04.727Z,99.90
2019-02-05T04:47:48.230Z,99.90
2019-02-05T04:50:22.701Z,99.90
2019-02-05T04:53:00.121Z,99.90
2019-02-05T04:55:37.526Z,99.90
2019-02-05T04:58:17.533Z,99.90
2019-02-05T05:00:57.762Z,99.90
2019-02-05T05:03:58.124Z,99.90
2019-02-05T05:06:46.153Z,99.90
2019-02-05T05:09:26.597Z,99.90
2019-02-05T05:11:54.989Z,99.90
2019-02-05T05:14:23.391Z,99.90
2019-02-05T05:16:51.806Z,99.90
2019-02-05T05:19:20.479Z,99.90
2019-02-05T05:21:49.164Z,99.90
2019-02-05T05:24:17.921Z,99.90
2019-02-05T05:26:46.486Z,99.90
2019-02-05T05:29:15.251Z,99.90
2019-02-05T05:31:44.369Z,99.90
2019-02-05T05:34:12.767Z,99.90
2019-02-05T05:36:48.374Z,99.90
2019-02-05T05:39:17.118Z,99.90
2019-02-05T05:41:45.841Z,99.90
2019-02-05T05:44:14.321Z,99.90
2019-02-05T05:46:42.726Z,99.90
2019-02-05T05:49:11.140Z,99.90
2019-02-05T05:51:39.825Z,99.90
2019-02-05T05:54:08.230Z,99.90
2019-02-05T05:56:36.634Z,99.90
2019-02-05T05:59:05.189Z,99.90
2019-02-05T06:01:36.525Z,99.90
2019-02-05T06:04:05.817Z,99.90
2019-02-05T06:06:34.229Z,99.90
2019-02-05T06:09:04.458Z,99.90
2019-02-05T06:11:32.921Z,99.90
2019-02-05T06:14:20.667Z,99.90
2019-02-05T06:16:49.082Z,99.90
2019-02-05T06:19:17.501Z,99.90
2019-02-05T06:21:46.150Z,99.90
2019-02-05T06:24:14.572Z,99.90
2019-02-05T06:26:42.970Z,99.90
2019-02-05T06:29:11.391Z,99.90
2019-02-05T06:31:39.865Z,99.90
2019-02-05T06:34:08.277Z,99.90
2019-02-05T06:36:36.702Z,99.90
2019-02-05T06:39:07.514Z,99.90
2019-02-05T06:41:36.392Z,99.90
2019-02-05T06:44:05.227Z,99.90
2019-02-05T06:46:33.714Z,99.90
2019-02-05T06:49:02.177Z,99.90
2019-02-05T06:51:30.606Z,99.90
2019-02-05T06:53:59.394Z,99.90
2019-02-05T06:56:27.798Z,99.90
2019-02-05T06:58:56.215Z,99.90
2019-02-05T07:01:24.635Z,99.90
2019-02-05T07:03:53.030Z,99.90
2019-02-05T07:06:21.434Z,99.90
2019-02-05T07:08:49.915Z,99.90
2019-02-05T07:11:18.703Z,99.90
2019-02-05T07:13:47.147Z,99.90
2019-02-05T07:16:15.584Z,99.90
2019-02-05T07:18:44.015Z,99.90
2019-02-05T07:21:12.778Z,99.90
2019-02-05T07:23:41.233Z,99.90
2019-02-05T07:26:09.927Z,99.90
2019-02-05T07:28:38.679Z,99.90
2019-02-05T07:31:07.189Z,99.90
2019-02-05T07:33:35.594Z,99.90
2019-02-05T07:36:04.459Z,99.90
2019-02-05T07:38:32.869Z,99.90
2019-02-05T07:41:01.276Z,99.90
2019-02-05T07:43:29.754Z,99.90
2019-02-05T07:45:58.424Z,99.90
2019-02-05T07:48:30.332Z,99.90
2019-02-05T07:50:57.339Z,99.90
2019-02-05T07:53:25.810Z,99.90
2019-02-05T07:55:54.214Z,99.90
2019-02-05T07:58:22.654Z,99.90
2019-02-05T08:00:51.060Z,99.90
2019-02-05T08:03:19.450Z,99.90
2019-02-05T08:05:48.126Z,99.90
2019-02-05T08:08:16.546Z,99.90
2019-02-05T08:10:45.186Z,99.90
2019-02-05T08:13:32.943Z,99.90
2019-02-05T08:16:01.342Z,99.90
2019-02-05T08:18:49.112Z,99.90
2019-02-05T08:21:17.513Z,99.90
2019-02-05T08:23:45.918Z,99.90
2019-02-05T08:26:14.327Z,99.90
2019-02-05T08:28:42.739Z,99.90
2019-02-05T08:31:11.138Z,99.90
2019-02-05T08:33:39.538Z,99.90
2019-02-05T08:36:08.035Z,99.90
2019-02-05T08:38:36.436Z,99.90
2019-02-05T08:41:05.027Z,99.90
2019-02-05T08:43:33.594Z,99.90
2019-02-05T08:46:01.989Z,99.90
2019-02-05T08:48:30.394Z,99.90
2019-02-05T08:50:58.858Z,99.90
2019-02-05T08:53:27.651Z,99.90
2019-02-05T08:55:56.054Z,99.90
2019-02-05T08:58:31.081Z,99.90
2019-02-05T09:00:54.590Z,99.90
2019-02-05T09:03:23.278Z,99.90
2019-02-05T09:05:51.750Z,99.90
2019-02-05T09:08:20.142Z,99.90
2019-02-05T09:10:48.555Z,99.90
2019-02-05T09:13:16.942Z,99.90
2019-02-05T09:15:45.359Z,99.90
2019-02-05T09:18:13.755Z,99.90
2019-02-05T09:20:42.146Z,99.90
2019-02-05T09:23:10.831Z,99.90
2019-02-05T09:25:39.294Z,99.90
2019-02-05T09:28:07.689Z,99.90
2019-02-05T09:30:36.912Z,99.90
2019-02-05T09:33:14.049Z,99.90
2019-02-05T09:35:42.458Z,99.90
2019-02-05T09:38:10.853Z,99.90
2019-02-05T09:40:39.262Z,99.90
2019-02-05T09:43:07.746Z,99.90
2019-02-05T09:45:36.481Z,99.90
2019-02-05T09:48:05.015Z,99.90
2019-02-05T09:50:44.240Z,99.90
2019-02-05T09:53:03.548Z,99.90
2019-02-05T09:55:32.313Z,99.90
2019-02-05T09:58:20.066Z,99.90
2019-02-05T10:00:48.457Z,99.90
2019-02-05T10:03:17.114Z,99.90
2019-02-05T10:05:45.618Z,99.90
2019-02-05T10:08:14.094Z,99.90
2019-02-05T10:10:42.490Z,99.90
2019-02-05T10:13:10.899Z,99.90
2019-02-05T10:15:41.884Z,99.90
2019-02-05T10:18:12.534Z,99.90
2019-02-05T10:20:41.285Z,99.90
2019-02-05T10:23:10.250Z,99.90
2019-02-05T10:25:39.081Z,99.90
2019-02-05T10:28:07.955Z,99.90
2019-02-05T10:30:41.408Z,99.90
2019-02-05T10:33:09.938Z,99.90
2019-02-05T10:35:38.486Z,99.90
2019-02-05T10:38:07.024Z,99.90
2019-02-05T10:40:36.166Z,99.90
2019-02-05T10:43:05.415Z,99.90
2019-02-05T10:45:33.953Z,99.90
2019-02-05T10:48:02.618Z,99.60
2019-02-05T10:50:31.026Z,99.40
2019-02-05T10:52:59.439Z,99.30
2019-02-05T10:55:27.899Z,99.30
2019-02-05T10:57:56.726Z,99.30
2019-02-05T11:00:32.738Z,99.30
2019-02-05T11:03:03.451Z,99.20
2019-02-05T11:05:32.583Z,99.20
2019-02-05T11:08:01.058Z,99.10
2019-02-05T11:10:29.519Z,99.00
2019-02-05T11:12:58.213Z,99.00
2019-02-05T11:15:29.218Z,98.90
2019-02-05T11:17:57.695Z,98.80
2019-02-05T11:20:27.909Z,98.70
2019-02-05T11:23:15.650Z,98.20
2019-02-05T11:25:44.041Z,97.90
2019-02-05T11:28:12.446Z,97.70
2019-02-05T11:30:43.070Z,97.50
2019-02-05T11:33:11.980Z,97.30
2019-02-05T11:35:40.454Z,97.10
2019-02-05T11:38:09.482Z,96.80
2019-02-05T11:40:40.110Z,96.30
2019-02-05T11:43:08.595Z,95.90
2019-02-05T11:45:37.046Z,95.60
2019-02-05T11:48:08.527Z,95.40
2019-02-05T11:50:37.262Z,95.30
2019-02-05T11:53:05.798Z,95.10
2019-02-05T11:55:35.038Z,95.00
2019-02-05T11:58:03.898Z,94.90
2019-02-05T12:00:40.171Z,94.60
2019-02-05T12:03:09.903Z,94.30
2019-02-05T12:05:38.565Z,94.20
2019-02-05T12:08:07.123Z,93.90
2019-02-05T12:10:35.589Z,93.70
2019-02-05T12:13:04.117Z,93.60
2019-02-05T12:15:32.611Z,93.40
2019-02-05T12:18:01.076Z,93.30
2019-02-05T12:20:29.542Z,93.40
2019-02-05T12:22:58.508Z,93.30
2019-02-05T12:25:28.062Z,93.50
2019-02-05T12:27:56.454Z,93.60
2019-02-05T12:30:27.195Z,93.60
2019-02-05T12:32:55.987Z,93.40
2019-02-05T12:35:24.454Z,93.20
2019-02-05T12:37:52.915Z,92.70
2019-02-05T12:40:21.703Z,92.70
2019-02-05T12:42:50.261Z,92.80
2019-02-05T12:45:30.007Z,92.80
2019-02-05T12:47:58.576Z,92.70
2019-02-05T12:50:31.866Z,92.60
2019-02-05T12:53:00.386Z,92.60
2019-02-05T12:55:28.864Z,92.60
2019-02-05T12:57:57.896Z,92.60
2019-02-05T13:00:29.086Z,92.60
2019-02-05T13:02:57.495Z,92.60
2019-02-05T13:05:26.189Z,92.60
2019-02-05T13:07:54.721Z,92.50
2019-02-05T13:10:28.962Z,92.60
2019-02-05T13:12:57.497Z,92.70
2019-02-05T13:15:25.898Z,92.80
2019-02-05T13:17:54.434Z,93.00
2019-02-05T13:20:30.614Z,93.10
2019-02-05T13:23:00.363Z,93.20
2019-02-05T13:25:30.862Z,93.40
2019-02-05T13:27:59.502Z,93.50
2019-02-05T13:30:30.530Z,93.60
2019-02-05T13:32:58.994Z,93.60
2019-02-05T13:35:28.797Z,93.60
2019-02-05T13:37:57.331Z,93.50
2019-02-05T13:40:28.098Z,93.40
2019-02-05T13:42:57.066Z,93.30
2019-02-05T13:45:31.092Z,93.20
2019-02-05T13:47:59.548Z,93.10
2019-02-05T13:50:33.789Z,92.90
2019-02-05T13:53:02.439Z,92.80
2019-02-05T13:55:33.555Z,92.60
2019-02-05T13:58:02.347Z,92.40
2019-02-05T14:00:39.553Z,92.30
2019-02-05T14:03:09.360Z,92.20
2019-02-05T14:05:38.102Z,92.00
2019-02-05T14:08:06.865Z,91.90
2019-02-05T14:10:37.603Z,91.80
2019-02-05T14:13:06.326Z,91.30
2019-02-05T14:15:36.971Z,91.10
2019-02-05T14:18:06.497Z,91.10
2019-02-05T14:20:34.954Z,91.00
2019-02-05T14:23:03.434Z,90.60
2019-02-05T14:25:31.902Z,90.50
2019-02-05T14:28:00.286Z,90.40
2019-02-05T14:30:42.870Z,90.10
2019-02-05T14:33:11.265Z,90.00
2019-02-05T14:35:39.958Z,90.00
2019-02-05T14:38:08.721Z,90.00
2019-02-05T14:40:37.186Z,90.10
2019-02-05T14:43:06.118Z,90.20
2019-02-05T14:45:34.659Z,90.20
2019-02-05T14:48:03.594Z,90.20
2019-02-05T14:50:34.641Z,90.30
2019-02-05T14:53:03.830Z,90.40
2019-02-05T14:55:32.222Z,90.50
2019-02-05T14:58:00.634Z,90.70
2019-02-05T15:00:36.063Z,90.80
2019-02-05T15:03:07.487Z,90.90
2019-02-05T15:05:35.874Z,91.00
2019-02-05T15:08:05.955Z,91.20
2019-02-05T15:10:34.775Z,91.30
2019-02-05T15:13:22.515Z,91.40
2019-02-05T15:15:50.902Z,91.30
2019-02-05T15:18:19.441Z,91.40
2019-02-05T15:20:48.529Z,91.40
2019-02-05T15:23:16.914Z,91.60
2019-02-05T15:25:45.322Z,91.90
2019-02-05T15:28:13.710Z,92.10
2019-02-05T15:30:43.537Z,92.30
2019-02-05T15:33:17.650Z,92.60
2019-02-05T15:35:54.085Z,92.80
2019-02-05T15:38:22.516Z,92.90
2019-02-05T15:40:50.918Z,93.10
2019-02-05T15:43:19.693Z,93.40
2019-02-05T15:45:48.089Z,93.50
2019-02-05T15:48:16.489Z,94.10
2019-02-05T15:50:44.882Z,94.00
2019-02-05T15:53:13.277Z,94.20
2019-02-05T15:55:42.146Z,94.40
2019-02-05T15:58:10.589Z,94.70
2019-02-05T16:00:38.981Z,95.00
2019-02-05T16:03:08.034Z,95.30
2019-02-05T16:05:36.694Z,95.60
2019-02-05T16:08:05.742Z,96.00
2019-02-05T16:10:34.135Z,96.20
2019-02-05T16:13:03.248Z,96.50
2019-02-05T16:15:31.682Z,96.70
2019-02-05T16:18:00.215Z,97.00
2019-02-05T16:20:29.049Z,97.30
2019-02-05T16:22:57.450Z,97.40
2019-02-05T16:25:25.846Z,97.60
2019-02-05T16:27:54.513Z,97.80
2019-02-05T16:30:25.992Z,98.00
2019-02-05T16:32:54.377Z,98.20
2019-02-05T16:35:22.881Z,98.40
2019-02-05T16:37:53.499Z,98.50
2019-02-05T16:40:26.962Z,98.70
2019-02-05T16:42:57.076Z,98.90
2019-02-05T16:45:27.878Z,99.10
2019-02-05T16:47:56.447Z,99.30
2019-02-05T16:50:30.841Z,99.40
2019-02-05T16:52:59.233Z,99.50
2019-02-05T16:55:28.125Z,99.60
2019-02-05T16:57:56.513Z,99.80
2019-02-05T17:00:30.541Z,99.90
2019-02-05T17:03:18.298Z,99.90
2019-02-05T17:05:46.690Z,99.90
2019-02-05T17:08:15.124Z,99.90
2019-02-05T17:10:43.574Z,99.90
2019-02-05T17:13:12.252Z,99.90
2019-02-05T17:15:40.753Z,99.90
2019-02-05T17:18:10.134Z,99.90
2019-02-05T17:20:38.670Z,99.90
2019-02-05T17:23:07.337Z,99.90
2019-02-05T17:25:36.244Z,99.90
2019-02-05T17:28:06.543Z,99.90
2019-02-05T17:30:37.662Z,99.90
2019-02-05T17:33:06.851Z,99.90
2019-02-05T17:35:35.997Z,99.90
2019-02-05T17:38:06.932Z,99.90
2019-02-05T17:40:36.224Z,99.90
2019-02-05T17:43:05.617Z,99.90
2019-02-05T17:45:36.887Z,99.90
2019-02-05T17:48:11.078Z,99.90
2019-02-05T17:50:58.821Z,99.90
2019-02-05T17:53:27.242Z,99.90
2019-02-05T17:55:55.661Z,99.90
2019-02-05T17:58:24.059Z,99.90
2019-02-05T18:00:54.114Z,99.90
2019-02-05T18:03:22.793Z,99.90
2019-02-05T18:05:51.188Z,99.90
2019-02-05T18:08:19.618Z,99.90
2019-02-05T18:10:48.022Z,99.90
2019-02-05T18:13:16.422Z,99.90
2019-02-05T18:15:44.916Z,99.90
2019-02-05T18:18:13.387Z,99.90
2019-02-05T18:20:41.786Z,99.90
2019-02-05T18:23:14.375Z,99.90
2019-02-05T18:25:42.947Z,99.90
2019-02-05T18:28:11.341Z,99.90
2019-02-05T18:30:40.298Z,99.90
2019-02-05T18:33:08.866Z,99.90
2019-02-05T18:35:37.262Z,99.90
2019-02-05T18:38:14.066Z,99.90
2019-02-05T18:40:42.477Z,99.90
2019-02-05T18:43:11.383Z,99.90
2019-02-05T18:45:39.782Z,99.90
2019-02-05T18:48:08.606Z,99.90
2019-02-05T18:50:37.013Z,99.90
2019-02-05T18:53:05.484Z,99.90
2019-02-05T18:55:36.696Z,99.90
2019-02-05T18:58:09.284Z,99.90
2019-02-05T19:00:41.790Z,99.90
2019-02-05T19:03:15.572Z,99.90
2019-02-05T19:05:40.626Z,99.90
2019-02-05T19:08:09.700Z,99.90
2019-02-05T19:10:38.340Z,99.90
2019-02-05T19:13:06.800Z,99.90
2019-02-05T19:15:37.379Z,99.90
2019-02-05T19:18:07.227Z,99.90
2019-02-05T19:20:35.716Z,99.90
2019-02-05T19:23:06.246Z,99.90
2019-02-05T19:25:36.368Z,99.90
2019-02-05T19:28:05.421Z,99.90
2019-02-05T19:30:35.471Z,99.90
2019-02-05T19:33:04.407Z,99.90
2019-02-05T19:35:32.890Z,99.90
2019-02-05T19:38:01.288Z,99.90
2019-02-05T19:40:29.694Z,99.90
2019-02-05T19:42:58.111Z,99.90
2019-02-05T19:45:34.177Z,99.90
2019-02-05T19:48:04.281Z,99.90
2019-02-05T19:50:32.722Z,99.90
2019-02-05T19:53:01.153Z,99.90
2019-02-05T19:55:29.559Z,99.90
2019-02-05T19:57:58.342Z,99.90
2019-02-05T20:00:26.790Z,99.90
2019-02-05T20:02:55.652Z,99.90
2019-02-05T20:05:24.165Z,99.90
2019-02-05T20:07:52.886Z,99.90
2019-02-05T20:10:21.319Z,99.90
2019-02-05T20:12:49.709Z,99.90
2019-02-05T20:15:19.754Z,99.90
2019-02-05T20:17:48.520Z,99.90
2019-02-05T20:20:21.509Z,99.90
2019-02-05T20:22:50.286Z,99.90
2019-02-05T20:25:19.689Z,99.90
2019-02-05T20:27:48.163Z,99.90
2019-02-05T20:30:22.748Z,99.90
2019-02-05T20:32:51.296Z,99.90
2019-02-05T20:35:19.700Z,99.90
2019-02-05T20:37:48.960Z,99.90
2019-02-05T20:40:22.658Z,99.90
2019-02-05T20:42:51.123Z,99.90
2019-02-05T20:45:19.742Z,99.90
2019-02-05T20:47:48.166Z,99.90
2019-02-05T20:50:18.786Z,99.90
2019-02-05T20:52:47.686Z,99.90
2019-02-05T20:55:21.689Z,99.90
2019-02-05T20:57:50.634Z,99.90
2019-02-05T21:00:24.318Z,99.90
2019-02-05T21:02:52.862Z,99.90
2019-02-05T21:05:21.548Z,99.90
2019-02-05T21:07:50.284Z,99.90
2019-02-05T21:10:21.413Z,99.90
2019-02-05T21:12:49.991Z,99.90
2019-02-05T21:15:18.641Z,99.90
2019-02-05T21:17:47.057Z,99.90
2019-02-05T21:20:28.951Z,99.90
2019-02-05T21:22:48.686Z,99.90
2019-02-05T21:25:19.402Z,99.90
2019-02-05T21:27:47.938Z,99.90
2019-02-05T21:30:21.491Z,99.90
2019-02-05T21:32:50.190Z,99.90
2019-02-05T21:35:18.656Z,99.90
2019-02-05T21:37:47.066Z,99.90
2019-02-05T21:40:20.921Z,99.90
2019-02-05T21:42:49.674Z,99.90
2019-02-05T21:45:20.687Z,99.90
2019-02-05T21:47:49.326Z,99.90
2019-02-05T21:50:24.253Z,99.90
2019-02-05T21:52:53.013Z,99.90
2019-02-05T21:55:27.847Z,99.90
2019-02-05T21:57:56.697Z,99.90
2019-02-05T22:00:35.997Z,99.90
2019-02-05T22:03:06.199Z,99.90
2019-02-05T22:05:34.694Z,99.90
2019-02-05T22:10:34.279Z,99.90
2019-02-05T22:13:02.701Z,99.90
2019-02-05T22:15:31.488Z,99.90
2019-02-05T22:17:59.907Z,99.90
2019-02-05T22:20:29.422Z,99.90
2019-02-05T22:22:58.080Z,99.90
2019-02-05T22:25:30.955Z,99.90
2019-02-05T22:27:59.642Z,99.90
2019-02-05T22:30:38.299Z,99.90
2019-02-05T22:33:08.038Z,99.90
2019-02-05T22:35:36.438Z,99.90
2019-02-05T22:38:05.554Z,99.90
2019-02-05T22:40:34.033Z,99.90
2019-02-05T22:43:02.870Z,99.90
2019-02-05T22:45:50.614Z,99.90
2019-02-05T22:48:19.011Z,99.90
2019-02-05T22:50:47.411Z,99.90
2019-02-05T22:53:16.029Z,99.90
2019-02-05T22:55:44.436Z,99.90
2019-02-05T22:58:12.969Z,99.90
2019-02-05T23:01:03.870Z,99.90
2019-02-05T23:03:37.946Z,99.90
2019-02-05T23:06:38.435Z,99.90
2019-02-05T23:09:25.282Z,99.90
2019-02-05T23:12:08.707Z,99.90
2019-02-05T23:14:37.105Z,99.90
2019-02-05T23:17:06.019Z,99.90
2019-02-05T23:19:34.574Z,99.90
2019-02-05T23:22:03.066Z,99.90
2019-02-05T23:24:31.479Z,99.90
2019-02-05T23:27:00.350Z,99.90
2019-02-05T23:29:28.829Z,99.90
2019-02-05T23:31:57.488Z,99.90
2019-02-05T23:34:26.134Z,99.90
2019-02-05T23:36:54.792Z,99.90
2019-02-05T23:39:23.337Z,99.90
2019-02-05T23:41:52.343Z,99.90
2019-02-05T23:44:21.002Z,99.90
2019-02-05T23:46:49.540Z,99.90
2019-02-05T23:49:18.310Z,99.90
2019-02-05T23:51:47.311Z,99.90
2019-02-05T23:54:15.951Z,99.90
2019-02-05T23:56:45.109Z,99.90
2019-02-05T23:59:14.185Z,99.90
